Time;durP1;ratioP1;P1;durP2;ratioP2;P2;SDS_P1;SDS_P2;PMS_P1;PMS_P2;Temp;Humidity;BMP_temperature;BMP_pressure;BME280_temperature;BME280_humidity;BME280_pressure;Samples;Min_cycle;Max_cycle;Signal;HPM_P1;HPM_P2
2023/06/27 00:00:59;;;;;;;3.20;0.50;;;;;;;13.76;100.00;99012.92;105004;1259;72942;-48
2023/06/27 00:03:26;;;;;;;2.50;0.50;;;;;;;13.70;100.00;99011.41;104963;1259;67068;-48
2023/06/27 00:05:54;;;;;;;1.60;0.50;;;;;;;13.65;100.00;99006.66;105771;1263;72438;-47
2023/06/27 00:08:21;;;;;;;4.50;0.40;;;;;;;13.63;100.00;99001.91;105107;1263;61643;-47
2023/06/27 00:10:49;;;;;;;4.60;0.50;;;;;;;13.63;100.00;99001.02;104977;1262;60566;-47
2023/06/27 00:13:16;;;;;;;1.60;0.30;;;;;;;13.64;100.00;99010.17;104938;1258;72030;-47
2023/06/27 00:15:43;;;;;;;0.90;0.60;;;;;;;13.64;100.00;99009.61;105083;1265;68066;-46
2023/06/27 00:18:11;;;;;;;2.60;0.50;;;;;;;13.63;100.00;99012.73;105149;1262;71377;-46
2023/06/27 00:20:38;;;;;;;4.00;0.60;;;;;;;13.62;100.00;99012.98;104915;1259;61978;-46
2023/06/27 00:23:23;;;;;;;1.10;0.60;;;;;;;13.62;100.00;99015.19;104966;1260;59626;-47
2023/06/27 00:25:50;;;;;;;2.80;0.60;;;;;;;13.59;100.00;99014.84;105183;1259;73061;-46
2023/06/27 00:28:17;;;;;;;0.50;0.50;;;;;;;13.56;100.00;99016.85;105067;1257;68354;-47
2023/06/27 00:30:44;;;;;;;0.70;0.50;;;;;;;13.53;100.00;99014.76;104869;1262;72873;-46
2023/06/27 00:33:12;;;;;;;1.80;0.60;;;;;;;13.48;100.00;99014.02;105097;1266;60471;-48
2023/06/27 00:35:39;;;;;;;0.80;0.50;;;;;;;13.43;100.00;99008.11;104901;1257;60503;-49
2023/06/27 00:38:07;;;;;;;1.60;0.50;;;;;;;13.42;100.00;99011.42;105205;1257;73073;-48
2023/06/27 00:40:35;;;;;;;3.50;0.50;;;;;;;13.41;100.00;99008.80;104918;1262;66985;-48
2023/06/27 00:43:03;;;;;;;2.80;0.40;;;;;;;13.41;100.00;99007.75;105171;1263;71851;-49
2023/06/27 00:45:30;;;;;;;2.90;0.40;;;;;;;13.38;100.00;99006.85;105227;1260;64142;-49
2023/06/27 00:48:00;;;;;;;2.90;0.50;;;;;;;13.34;100.00;99000.27;105261;1254;59966;-48
2023/06/27 00:50:30;;;;;;;2.20;0.50;;;;;;;13.32;100.00;98994.85;105317;1258;74402;-48
2023/06/27 00:52:58;;;;;;;0.60;0.40;;;;;;;13.32;100.00;98990.91;108886;1254;67541;-49
2023/06/27 00:55:25;;;;;;;3.50;0.50;;;;;;;13.32;100.00;98990.56;108926;1256;72842;-47
2023/06/27 00:57:53;;;;;;;0.40;0.40;;;;;;;13.32;100.00;98989.11;108900;1255;61107;-48
2023/06/27 01:00:20;;;;;;;1.10;0.50;;;;;;;13.31;100.00;98985.73;109006;1255;60009;-46
2023/06/27 01:02:48;;;;;;;1.70;0.50;;;;;;;13.29;100.00;98985.15;108937;1253;74685;-48
2023/06/27 01:05:15;;;;;;;2.00;0.50;;;;;;;13.28;100.00;98988.83;108824;1254;67342;-47
2023/06/27 01:07:50;;;;;;;1.20;0.60;;;;;;;13.28;100.00;98991.20;108948;1256;72738;-47
2023/06/27 01:10:41;;;;;;;1.10;0.40;;;;;;;13.28;100.00;98997.52;108588;1255;62016;-47
2023/06/27 01:13:29;;;;;;;0.50;0.40;;;;;;;13.28;100.00;98999.98;108701;1255;58871;-48
2023/06/27 01:15:57;;;;;;;0.50;0.50;;;;;;;13.28;100.00;99003.61;108599;1256;72250;-50
2023/06/27 01:18:27;;;;;;;4.80;0.50;;;;;;;13.26;100.00;99000.48;108845;1256;66790;-50
2023/06/27 01:20:58;;;;;;;2.40;0.50;;;;;;;13.28;100.00;99007.02;108870;1258;74503;-50
2023/06/27 01:23:30;;;;;;;2.70;0.40;;;;;;;13.29;100.00;99003.89;108807;1257;61115;-50
2023/06/27 01:26:04;;;;;;;0.50;0.50;;;;;;;13.30;100.00;99001.49;108675;1255;61480;-50
2023/06/27 01:28:36;;;;;;;0.70;0.60;;;;;;;13.28;100.00;99002.52;106841;1257;71737;-48
2023/06/27 01:31:06;;;;;;;0.80;0.50;;;;;;;13.27;100.00;99004.57;104753;1260;67722;-48
2023/06/27 01:33:46;;;;;;;1.70;0.60;;;;;;;13.27;100.00;99005.27;108658;1257;73749;-49
2023/06/27 01:36:23;;;;;;;0.60;0.50;;;;;;;13.27;100.00;99004.38;108764;1258;60417;-50
2023/06/27 01:38:56;;;;;;;0.50;0.50;;;;;;;13.25;100.00;99003.42;107117;1258;58793;-49
2023/06/27 01:41:24;;;;;;;0.70;0.50;;;;;;;13.26;100.00;98999.05;106922;1260;73464;-49
2023/06/27 01:43:55;;;;;;;1.80;0.50;;;;;;;13.27;100.00;98997.95;104641;1261;66927;-48
2023/06/27 01:46:23;;;;;;;4.20;0.40;;;;;;;13.25;100.00;98996.41;104166;1262;72696;-48
2023/06/27 01:48:50;;;;;;;1.10;0.50;;;;;;;13.24;100.00;99000.27;104398;1263;61833;-50
2023/06/27 01:51:17;;;;;;;1.00;0.50;;;;;;;13.20;100.00;99001.45;104365;1258;60509;-48
2023/06/27 01:53:45;;;;;;;3.80;0.50;;;;;;;13.16;100.00;99002.10;104389;1261;70824;-49
2023/06/27 01:56:12;;;;;;;0.50;0.50;;;;;;;13.15;100.00;99005.58;104913;1261;67039;-49
2023/06/27 01:58:40;;;;;;;0.50;0.50;;;;;;;13.14;100.00;99005.15;105140;1263;72417;-49
2023/06/27 02:01:08;;;;;;;1.40;0.60;;;;;;;13.12;100.00;99002.16;105121;1262;61641;-48
2023/06/27 02:03:36;;;;;;;0.80;0.60;;;;;;;13.12;100.00;99002.57;105504;1260;59722;-49
2023/06/27 02:06:03;;;;;;;1.10;0.60;;;;;;;13.10;100.00;98999.04;105048;1262;73549;-47
2023/06/27 02:08:31;;;;;;;3.10;0.60;;;;;;;13.10;100.00;99003.62;104932;1258;66793;-49
2023/06/27 02:10:58;;;;;;;3.20;0.60;;;;;;;13.09;100.00;99005.77;105010;1270;72789;-49
2023/06/27 02:13:26;;;;;;;0.60;0.60;;;;;;;13.07;100.00;99006.33;106384;1260;61641;-50
2023/06/27 02:15:53;;;;;;;0.60;0.60;;;;;;;13.04;100.00;99006.35;105222;1255;60343;-46
2023/06/27 02:18:21;;;;;;;0.80;0.60;;;;;;;13.01;100.00;99006.77;105099;1257;71795;-48
2023/06/27 02:20:48;;;;;;;0.70;0.50;;;;;;;13.00;100.00;99004.83;105293;1257;67609;-47
2023/06/27 02:23:15;;;;;;;1.70;0.60;;;;;;;13.00;100.00;99001.05;105263;1258;70154;-47
2023/06/27 02:25:43;;;;;;;1.10;0.70;;;;;;;13.01;100.00;98996.09;105230;1259;61841;-49
2023/06/27 02:28:10;;;;;;;1.00;0.70;;;;;;;13.01;100.00;98996.52;105283;1260;60502;-49
2023/06/27 02:30:38;;;;;;;0.60;0.50;;;;;;;13.00;100.00;98994.20;105587;1265;74077;-48
2023/06/27 02:33:05;;;;;;;0.50;0.50;;;;;;;13.01;100.00;98988.41;105231;1260;68011;-47
2023/06/27 02:35:33;;;;;;;0.60;0.60;;;;;;;13.01;100.00;98988.23;105258;1259;72738;-49
2023/06/27 02:38:00;;;;;;;0.70;0.70;;;;;;;13.00;100.00;98986.67;105378;1258;64289;-47
2023/06/27 02:40:29;;;;;;;0.90;0.60;;;;;;;12.99;100.00;98986.52;105261;1255;60448;-47
2023/06/27 02:42:56;;;;;;;0.70;0.70;;;;;;;13.00;100.00;98990.96;105343;1259;73292;-47
2023/06/27 02:45:24;;;;;;;1.50;0.60;;;;;;;13.02;100.00;98988.15;105324;1258;66956;-48
2023/06/27 02:47:52;;;;;;;0.80;0.60;;;;;;;13.04;100.00;98990.16;105276;1261;73567;-48
2023/06/27 02:50:19;;;;;;;0.70;0.70;;;;;;;13.05;100.00;98994.02;105227;1258;60522;-48
2023/06/27 02:52:46;;;;;;;3.00;0.60;;;;;;;13.08;100.00;98993.14;105171;1260;60542;-47
2023/06/27 02:55:14;;;;;;;1.20;0.70;;;;;;;13.10;100.00;98992.92;105204;1261;73870;-48
2023/06/27 02:57:41;;;;;;;1.40;0.60;;;;;;;13.12;100.00;98992.95;105156;1260;67049;-48
2023/06/27 03:00:10;;;;;;;0.80;0.70;;;;;;;13.16;100.00;98992.19;105317;1258;72421;-49
2023/06/27 03:02:38;;;;;;;2.20;0.70;;;;;;;13.19;100.00;98985.45;105360;1254;61763;-48
2023/06/27 03:05:06;;;;;;;1.50;0.70;;;;;;;13.20;100.00;98984.55;105591;1256;60404;-49
2023/06/27 03:07:34;;;;;;;0.70;0.70;;;;;;;13.21;100.00;98981.77;106308;1255;74342;-49
2023/06/27 03:10:03;;;;;;;2.40;0.70;;;;;;;13.22;100.00;98985.83;105082;1262;66925;-48
2023/06/27 03:12:30;;;;;;;3.20;0.80;;;;;;;13.23;100.00;98985.91;105271;1258;72020;-50
2023/06/27 03:14:58;;;;;;;1.00;0.90;;;;;;;13.27;100.00;98986.36;105114;1257;60642;-49
2023/06/27 03:17:26;;;;;;;1.10;0.80;;;;;;;13.29;100.00;98982.77;108416;1257;59489;-47
2023/06/27 03:19:54;;;;;;;1.00;0.90;;;;;;;13.34;100.00;98985.02;105284;1260;73903;-48
2023/06/27 03:22:21;;;;;;;3.00;0.70;;;;;;;13.38;100.00;98982.87;105058;1261;66556;-47
2023/06/27 03:24:48;;;;;;;0.90;0.80;;;;;;;13.40;100.00;98979.63;105073;1259;72413;-48
2023/06/27 03:27:17;;;;;;;1.80;0.90;;;;;;;13.45;100.00;98979.29;105296;1261;60490;-47
2023/06/27 03:29:44;;;;;;;1.00;0.80;;;;;;;13.48;100.00;98980.02;105236;1259;60413;-48
2023/06/27 03:32:13;;;;;;;2.00;0.80;;;;;;;13.49;100.00;98982.59;105156;1259;73873;-48
2023/06/27 03:34:41;;;;;;;1.70;0.90;;;;;;;13.47;100.00;98983.11;106135;1255;67525;-49
2023/06/27 03:37:09;;;;;;;1.70;0.80;;;;;;;13.48;100.00;98979.10;106262;1256;72312;-47
2023/06/27 03:39:38;;;;;;;1.00;0.70;;;;;;;13.47;100.00;98973.21;105404;1260;60472;-49
2023/06/27 03:42:06;;;;;;;0.90;0.60;;;;;;;13.47;100.00;98976.11;106436;1257;60556;-49
2023/06/27 03:44:34;;;;;;;1.90;1.00;;;;;;;13.50;100.00;98978.39;105305;1259;73879;-49
2023/06/27 03:47:01;;;;;;;1.10;0.70;;;;;;;13.55;100.00;98975.31;105291;1254;65602;-47
2023/06/27 03:49:28;;;;;;;1.30;0.90;;;;;;;13.60;100.00;98977.86;105255;1261;75939;-46
2023/06/27 03:51:57;;;;;;;4.20;0.80;;;;;;;13.64;100.00;98976.12;105310;1254;60629;-47
2023/06/27 03:54:24;;;;;;;0.70;0.60;;;;;;;13.66;100.00;98975.43;105314;1254;60406;-47
2023/06/27 03:56:52;;;;;;;0.80;0.60;;;;;;;13.71;100.00;98971.13;105217;1254;74506;-46
2023/06/27 03:59:20;;;;;;;2.50;0.90;;;;;;;13.77;100.00;98963.65;105126;1261;66870;-47
2023/06/27 04:01:48;;;;;;;1.20;0.70;;;;;;;13.82;100.00;98967.37;105068;1258;72499;-48
2023/06/27 04:04:16;;;;;;;1.40;1.20;;;;;;;13.85;100.00;98961.90;105256;1260;60590;-47
2023/06/27 04:06:43;;;;;;;2.30;0.80;;;;;;;13.89;100.00;98960.55;108663;1254;59112;-48
2023/06/27 04:09:11;;;;;;;0.80;0.80;;;;;;;13.92;100.00;98961.96;108831;1254;72644;-49
2023/06/27 04:11:38;;;;;;;0.80;0.80;;;;;;;13.94;100.00;98961.77;108855;1254;66432;-49
2023/06/27 04:14:06;;;;;;;1.00;0.90;;;;;;;14.00;100.00;98960.06;108854;1254;72696;-49
2023/06/27 04:16:33;;;;;;;0.90;0.90;;;;;;;14.08;100.00;98956.61;108815;1256;61629;-50
2023/06/27 04:19:00;;;;;;;1.00;0.70;;;;;;;14.18;100.00;98956.19;108947;1254;58981;-49
2023/06/27 04:21:27;;;;;;;1.70;0.80;;;;;;;14.27;100.00;98959.83;108906;1254;73955;-50
2023/06/27 04:23:56;;;;;;;1.70;0.80;;;;;;;14.36;100.00;98957.00;108954;1254;70308;-48
2023/06/27 04:26:25;;;;;;;2.70;1.10;;;;;;;14.44;100.00;98959.34;108804;1254;70345;-50
2023/06/27 04:28:52;;;;;;;1.20;0.70;;;;;;;14.50;100.00;98961.18;108990;1254;61715;-48
2023/06/27 04:31:21;;;;;;;1.00;0.70;;;;;;;14.57;100.00;98962.80;108883;1254;59996;-50
2023/06/27 04:33:49;;;;;;;0.70;0.70;;;;;;;14.66;100.00;98966.06;108970;1253;72666;-49
2023/06/27 04:36:20;;;;;;;0.80;0.60;;;;;;;14.74;100.00;98965.93;108986;1253;66354;-49
2023/06/27 04:38:48;;;;;;;0.60;0.60;;;;;;;14.81;100.00;98965.58;108672;1254;72718;-49
2023/06/27 04:41:15;;;;;;;1.40;0.60;;;;;;;14.87;100.00;98972.20;105269;1254;60637;-48
2023/06/27 04:43:43;;;;;;;0.70;0.70;;;;;;;14.91;100.00;98968.66;104978;1254;60576;-48
2023/06/27 04:46:10;;;;;;;0.60;0.60;;;;;;;14.93;100.00;98970.08;105328;1259;73907;-47
2023/06/27 04:48:37;;;;;;;1.60;0.70;;;;;;;14.97;100.00;98970.70;105315;1256;65300;-47
2023/06/27 04:51:05;;;;;;;0.90;0.60;;;;;;;15.01;100.00;98971.23;105276;1254;71442;-48
2023/06/27 04:53:32;;;;;;;0.60;0.60;;;;;;;15.07;100.00;98972.19;105221;1255;61677;-48
2023/06/27 04:55:59;;;;;;;1.30;0.60;;;;;;;15.13;100.00;98972.49;105328;1254;60474;-47
2023/06/27 04:58:27;;;;;;;0.80;0.70;;;;;;;15.21;100.00;98971.66;105254;1260;73832;-47
2023/06/27 05:00:54;;;;;;;1.00;0.60;;;;;;;15.30;100.00;98973.31;105157;1259;67519;-47
2023/06/27 05:03:21;;;;;;;0.60;0.60;;;;;;;15.37;100.00;98972.52;105297;1259;72704;-47
2023/06/27 05:05:49;;;;;;;1.70;0.70;;;;;;;15.42;100.00;98976.80;105156;1258;60494;-49
2023/06/27 05:08:16;;;;;;;3.50;0.60;;;;;;;15.48;100.00;98977.39;105204;1258;62321;-47
2023/06/27 05:10:44;;;;;;;0.80;0.60;;;;;;;15.53;100.00;98985.16;107051;1259;74191;-47
2023/06/27 05:13:15;;;;;;;0.60;0.60;;;;;;;15.59;100.00;98979.33;105172;1260;66574;-47
2023/06/27 05:15:43;;;;;;;0.50;0.50;;;;;;;15.60;100.00;98979.34;105128;1254;72675;-49
2023/06/27 05:18:12;;;;;;;1.00;0.70;;;;;;;15.62;100.00;98980.91;105186;1259;60565;-49
2023/06/27 05:20:42;;;;;;;0.60;0.50;;;;;;;15.63;100.00;98986.58;105405;1254;60299;-49
2023/06/27 05:23:10;;;;;;;0.50;0.50;;;;;;;15.65;100.00;98990.73;105697;1254;73890;-48
2023/06/27 05:25:37;;;;;;;0.90;0.60;;;;;;;15.69;100.00;98988.93;105288;1256;68582;-46
2023/06/27 05:28:05;;;;;;;0.60;0.60;;;;;;;15.77;100.00;98986.83;105371;1254;72693;-48
2023/06/27 05:30:32;;;;;;;0.90;0.50;;;;;;;15.85;100.00;98984.95;105237;1254;61186;-48
2023/06/27 05:33:03;;;;;;;1.20;0.60;;;;;;;15.89;100.00;98982.40;105339;1254;60527;-48
2023/06/27 05:35:31;;;;;;;0.60;0.60;;;;;;;15.95;100.00;98978.54;104902;1254;72572;-48
2023/06/27 05:37:59;;;;;;;0.60;0.60;;;;;;;16.02;100.00;98980.10;104993;1254;67909;-47
2023/06/27 05:40:27;;;;;;;1.50;0.50;;;;;;;16.10;100.00;98983.05;106073;1254;71079;-49
2023/06/27 05:42:55;;;;;;;0.90;0.70;;;;;;;16.19;100.00;98990.77;105974;1258;61735;-47
2023/06/27 05:45:22;;;;;;;0.80;0.50;;;;;;;16.28;100.00;98989.35;104832;1254;60733;-48
2023/06/27 05:47:50;;;;;;;0.50;0.50;;;;;;;16.36;100.00;98991.15;104882;1257;72697;-48
2023/06/27 05:50:18;;;;;;;0.60;0.50;;;;;;;16.47;100.00;98991.33;104785;1257;66293;-49
2023/06/27 05:52:45;;;;;;;0.60;0.60;;;;;;;16.53;100.00;98986.48;104665;1254;71302;-48
2023/06/27 05:55:13;;;;;;;0.50;0.50;;;;;;;16.55;100.00;98988.06;104850;1255;60774;-50
2023/06/27 05:57:40;;;;;;;2.10;0.50;;;;;;;16.56;100.00;98984.80;104775;1260;60838;-48
2023/06/27 06:00:10;;;;;;;0.60;0.60;;;;;;;16.54;100.00;98988.39;105059;1257;73827;-48
2023/06/27 06:02:38;;;;;;;1.10;0.50;;;;;;;16.54;100.00;98990.90;105381;1260;66525;-48
2023/06/27 06:05:10;;;;;;;0.60;0.50;;;;;;;16.58;100.00;98988.69;105394;1258;71439;-49
2023/06/27 06:07:39;;;;;;;0.40;0.40;;;;;;;16.64;100.00;98985.36;104773;1260;60649;-48
2023/06/27 06:10:08;;;;;;;0.80;0.40;;;;;;;16.72;100.00;98989.08;106644;1255;60983;-47
2023/06/27 06:12:36;;;;;;;0.40;0.40;;;;;;;16.78;100.00;98996.65;107020;1255;72628;-46
2023/06/27 06:15:04;;;;;;;1.80;0.40;;;;;;;16.86;100.00;98993.97;104598;1255;67737;-48
2023/06/27 06:17:32;;;;;;;0.60;0.50;;;;;;;16.93;100.00;98996.96;104476;1254;70083;-48
2023/06/27 06:19:59;;;;;;;2.20;0.50;;;;;;;16.98;100.00;98995.27;105091;1254;61343;-46
2023/06/27 06:22:26;;;;;;;0.60;0.60;;;;;;;17.02;100.00;98991.09;105172;1260;59190;-47
2023/06/27 06:24:54;;;;;;;0.80;0.60;;;;;;;17.06;100.00;98990.48;105149;1254;74192;-48
2023/06/27 06:27:21;;;;;;;0.40;0.40;;;;;;;17.10;100.00;98991.35;105159;1259;69687;-46
2023/06/27 06:29:49;;;;;;;0.90;0.40;;;;;;;17.16;100.00;98994.64;105215;1257;73151;-48
2023/06/27 06:32:16;;;;;;;0.40;0.40;;;;;;;17.22;100.00;98994.24;105197;1260;60558;-48
2023/06/27 06:34:43;;;;;;;0.50;0.50;;;;;;;17.29;100.00;99001.80;105123;1254;60479;-48
2023/06/27 06:37:10;;;;;;;0.80;0.50;;;;;;;17.34;100.00;99006.05;104855;1255;73882;-48
2023/06/27 06:39:38;;;;;;;0.40;0.40;;;;;;;17.37;100.00;98999.42;105278;1258;67112;-49
2023/06/27 06:42:06;;;;;;;1.40;0.40;;;;;;;17.41;100.00;98994.41;105370;1257;72666;-48
2023/06/27 06:44:33;;;;;;;1.00;0.40;;;;;;;17.48;100.00;98996.73;109018;1254;60480;-50
2023/06/27 06:47:00;;;;;;;0.50;0.50;;;;;;;17.56;100.00;98998.52;109057;1254;58886;-50
2023/06/27 06:49:28;;;;;;;0.50;0.50;;;;;;;17.63;100.00;98997.35;109060;1253;73778;-50
2023/06/27 06:51:55;;;;;;;0.50;0.50;;;;;;;17.71;100.00;99000.27;109139;1254;67547;-50
2023/06/27 06:54:22;;;;;;;0.90;0.50;;;;;;;17.78;100.00;99002.02;109088;1254;72460;-49
2023/06/27 06:56:50;;;;;;;0.40;0.40;;;;;;;17.83;100.00;99007.06;108981;1254;59996;-49
2023/06/27 06:59:17;;;;;;;0.60;0.50;;;;;;;17.87;100.00;99004.69;108952;1254;59243;-49
2023/06/27 07:01:44;;;;;;;0.40;0.40;;;;;;;17.92;100.00;99012.91;109159;1253;73874;-47
2023/06/27 07:04:12;;;;;;;3.10;0.50;;;;;;;17.97;100.00;99014.41;109017;1253;66818;-47
2023/06/27 07:06:39;;;;;;;0.60;0.60;;;;;;;17.97;100.00;99015.13;108933;1254;71168;-47
2023/06/27 07:09:06;;;;;;;0.50;0.50;;;;;;;17.97;100.00;99006.27;109099;1254;60041;-48
2023/06/27 07:11:33;;;;;;;2.30;0.50;;;;;;;17.96;100.00;99001.51;108982;1254;60173;-48
2023/06/27 07:14:01;;;;;;;0.60;0.50;;;;;;;17.92;100.00;99001.50;108992;1254;72569;-49
2023/06/27 07:16:28;;;;;;;0.70;0.50;;;;;;;17.89;100.00;99000.66;109004;1256;66848;-47
2023/06/27 07:18:55;;;;;;;0.40;0.40;;;;;;;17.88;100.00;98999.08;108786;1257;72675;-48
2023/06/27 07:21:22;;;;;;;1.10;0.50;;;;;;;17.93;100.00;98997.95;108857;1256;59374;-48
2023/06/27 07:23:51;;;;;;;1.10;0.50;;;;;;;17.99;100.00;98996.11;108834;1254;60114;-48
2023/06/27 07:26:18;;;;;;;1.80;0.50;;;;;;;18.07;100.00;98990.48;108993;1254;75580;-48
2023/06/27 07:28:45;;;;;;;1.80;0.50;;;;;;;18.16;100.00;98988.98;108923;1253;66833;-48
2023/06/27 07:31:13;;;;;;;0.50;0.50;;;;;;;18.25;100.00;98995.34;108338;1254;71347;-47
2023/06/27 07:33:41;;;;;;;1.80;0.40;;;;;;;18.34;100.00;99007.39;105208;1256;60512;-48
2023/06/27 07:36:08;;;;;;;0.40;0.40;;;;;;;18.42;100.00;99005.89;105343;1256;60502;-47
2023/06/27 07:38:35;;;;;;;0.50;0.50;;;;;;;18.49;100.00;99007.67;105227;1256;72828;-48
2023/06/27 07:41:02;;;;;;;0.40;0.40;;;;;;;18.56;100.00;99005.94;105330;1256;66447;-48
2023/06/27 07:43:30;;;;;;;0.40;0.40;;;;;;;18.65;100.00;99005.27;105228;1258;72478;-48
2023/06/27 07:45:57;;;;;;;0.50;0.40;;;;;;;18.74;100.00;99010.57;105117;1254;60559;-49
2023/06/27 07:48:25;;;;;;;0.50;0.50;;;;;;;18.82;100.00;99009.65;105380;1254;60296;-49
2023/06/27 07:50:52;;;;;;;0.50;0.50;;;;;;;18.92;100.00;99013.14;105295;1258;73879;-47
2023/06/27 07:53:19;;;;;;;0.70;0.50;;;;;;;19.01;100.00;99013.14;105179;1258;67288;-48
2023/06/27 07:55:47;;;;;;;1.90;0.40;;;;;;;19.11;100.00;99010.89;105261;1254;71145;-47
2023/06/27 07:58:15;;;;;;;0.50;0.50;;;;;;;19.22;100.00;99011.81;105236;1254;60894;-47
2023/06/27 08:00:42;;;;;;;0.40;0.40;;;;;;;19.33;100.00;99014.30;105200;1260;60382;-47
2023/06/27 08:03:09;;;;;;;0.50;0.50;;;;;;;19.38;100.00;99016.84;105302;1257;73851;-48
2023/06/27 08:05:39;;;;;;;0.70;0.50;;;;;;;19.41;100.00;99013.70;105645;1258;67368;-49
2023/06/27 08:08:10;;;;;;;0.60;0.50;;;;;;;19.42;100.00;99012.27;105398;1256;73391;-49
2023/06/27 08:10:38;;;;;;;0.50;0.50;;;;;;;19.45;100.00;99003.81;105325;1255;60550;-48
2023/06/27 08:13:05;;;;;;;3.10;0.50;;;;;;;19.50;100.00;99005.55;105428;1254;61735;-47
2023/06/27 08:15:33;;;;;;;2.20;0.50;;;;;;;19.56;100.00;99000.76;105440;1254;74881;-47
2023/06/27 08:18:02;;;;;;;0.40;0.40;;;;;;;19.61;100.00;99011.17;105438;1255;67835;-49
2023/06/27 08:20:33;;;;;;;1.00;0.50;;;;;;;19.63;100.00;99007.39;105505;1254;71375;-48
2023/06/27 08:23:01;;;;;;;2.30;0.50;;;;;;;19.64;100.00;99008.89;105267;1257;60925;-49
2023/06/27 08:25:28;;;;;;;0.40;0.40;;;;;;;19.68;100.00;99001.60;105203;1254;60452;-48
2023/06/27 08:27:56;;;;;;;0.50;0.50;;;;;;;19.73;100.00;98999.90;105307;1254;73768;-49
2023/06/27 08:30:23;;;;;;;0.60;0.50;;;;;;;19.78;100.00;99008.81;105412;1255;67658;-49
2023/06/27 08:32:51;;;;;;;0.50;0.50;;;;;;;19.80;100.00;99010.11;105359;1257;72709;-48
2023/06/27 08:35:18;;;;;;;0.50;0.40;;;;;;;19.79;100.00;99013.81;105434;1254;61592;-49
2023/06/27 08:37:46;;;;;;;0.50;0.50;;;;;;;19.80;100.00;99010.67;105387;1258;61904;-48
2023/06/27 08:40:23;;;;;;;0.80;0.50;;;;;;;19.82;100.00;99007.85;105456;1252;73838;-49
2023/06/27 08:42:50;;;;;;;0.90;0.70;;;;;;;19.89;100.00;99012.96;105553;1253;66749;-48
2023/06/27 08:45:18;;;;;;;0.50;0.50;;;;;;;19.94;100.00;99005.75;105448;1258;72945;-48
2023/06/27 08:47:46;;;;;;;0.60;0.60;;;;;;;19.95;100.00;99002.92;105550;1254;60934;-51
2023/06/27 08:50:13;;;;;;;0.70;0.60;;;;;;;19.97;100.00;99002.35;105963;1253;60562;-49
2023/06/27 08:52:45;;;;;;;0.70;0.70;;;;;;;19.95;100.00;98996.60;105555;1256;73840;-50
2023/06/27 08:55:39;;;;;;;2.10;0.60;;;;;;;19.92;100.00;98999.00;105325;1254;67874;-49
2023/06/27 08:58:10;;;;;;;0.60;0.60;;;;;;;19.97;100.00;98987.28;105479;1257;71497;-51
2023/06/27 09:00:38;;;;;;;0.70;0.70;;;;;;;20.03;100.00;98984.31;105982;1253;60823;-49
2023/06/27 09:03:06;;;;;;;0.60;0.50;;;;;;;20.05;100.00;98987.59;105423;1254;60557;-49
2023/06/27 09:05:34;;;;;;;1.40;0.70;;;;;;;20.08;100.00;98986.67;105449;1253;72695;-48
2023/06/27 09:08:01;;;;;;;0.80;0.70;;;;;;;20.10;100.00;98988.29;105418;1258;67600;-49
2023/06/27 09:10:29;;;;;;;0.60;0.60;;;;;;;20.11;100.00;98991.27;105200;1256;72039;-51
2023/06/27 09:12:56;;;;;;;0.90;0.60;;;;;;;20.14;100.00;98999.77;105794;1253;60462;-49
2023/06/27 09:15:24;;;;;;;0.60;0.60;;;;;;;20.16;100.00;98994.79;105990;1253;60516;-48
2023/06/27 09:17:51;;;;;;;0.60;0.50;;;;;;;20.22;100.00;98998.04;105269;1258;73473;-47
2023/06/27 09:20:19;;;;;;;0.70;0.70;;;;;;;20.30;100.00;99000.32;106274;1258;67869;-49
2023/06/27 09:22:47;;;;;;;0.90;0.50;;;;;;;20.41;100.00;99004.77;105240;1255;72785;-49
2023/06/27 09:25:21;;;;;;;0.60;0.60;;;;;;;20.50;100.00;99001.11;105253;1253;60436;-49
2023/06/27 09:27:49;;;;;;;0.60;0.50;;;;;;;20.59;100.00;99007.80;105369;1255;63535;-49
2023/06/27 09:30:20;;;;;;;0.60;0.60;;;;;;;20.66;100.00;99009.80;105234;1254;72717;-49
2023/06/27 09:32:52;;;;;;;1.50;0.60;;;;;;;20.73;100.00;99001.14;105334;1253;69531;-50
2023/06/27 09:35:20;;;;;;;1.20;0.50;;;;;;;20.77;100.00;99002.27;105956;1254;72667;-50
2023/06/27 09:38:08;;;;;;;0.60;0.60;;;;;;;20.83;100.00;99005.02;105418;1253;60574;-51
2023/06/27 09:40:38;;;;;;;0.50;0.50;;;;;;;20.88;100.00;99011.60;105330;1258;60491;-50
2023/06/27 09:43:06;;;;;;;0.60;0.60;;;;;;;20.87;100.00;99006.80;105329;1253;73722;-49
2023/06/27 09:45:34;;;;;;;0.50;0.50;;;;;;;20.78;100.00;99014.38;105349;1253;65785;-48
2023/06/27 09:48:01;;;;;;;1.30;0.50;;;;;;;20.76;100.00;99019.52;105366;1253;72669;-49
2023/06/27 09:50:30;;;;;;;0.60;0.60;;;;;;;20.79;100.00;99019.65;109005;1254;60089;-48
2023/06/27 09:53:02;;;;;;;0.60;0.50;;;;;;;20.83;100.00;99016.28;109050;1253;59031;-49
2023/06/27 09:55:29;;;;;;;0.60;0.60;;;;;;;20.91;100.00;99014.74;109119;1257;71617;-50
2023/06/27 09:57:57;;;;;;;0.90;0.80;;;;;;;20.98;100.00;99012.80;109105;1253;67642;-48
2023/06/27 10:00:28;;;;;;;1.40;0.80;;;;;;;21.00;100.00;99021.51;109029;1253;73679;-49
2023/06/27 10:02:56;;;;;;;1.40;0.70;;;;;;;21.01;100.00;99019.27;109072;1253;60067;-49
2023/06/27 10:05:24;;;;;;;0.60;0.60;;;;;;;21.06;100.00;99015.16;109021;1254;60062;-48
2023/06/27 10:07:53;;;;;;;0.60;0.50;;;;;;;21.16;100.00;99014.70;109087;1252;73816;-48
2023/06/27 10:10:20;;;;;;;0.50;0.50;;;;;;;21.25;100.00;99019.59;109090;1255;67329;-48
2023/06/27 10:12:48;;;;;;;0.50;0.50;;;;;;;21.34;100.00;99019.27;108769;1258;74397;-49
2023/06/27 10:15:15;;;;;;;0.60;0.60;;;;;;;21.38;100.00;99021.93;108990;1253;59782;-48
2023/06/27 10:17:42;;;;;;;0.60;0.60;;;;;;;21.41;100.00;99018.00;108965;1253;60026;-48
2023/06/27 10:20:11;;;;;;;0.50;0.50;;;;;;;21.46;100.00;99015.41;108756;1252;73942;-49
2023/06/27 10:22:40;;;;;;;0.70;0.60;;;;;;;21.50;100.00;99017.11;109127;1253;67884;-47
2023/06/27 10:25:08;;;;;;;0.70;0.60;;;;;;;21.54;100.00;99015.30;108973;1254;72647;-48
2023/06/27 10:27:38;;;;;;;0.60;0.60;;;;;;;21.57;100.00;99013.52;108797;1254;308506;-48
2023/06/27 10:31:45;;;;;;;0.50;0.50;;;;;;;21.61;100.00;99015.52;102349;1291;600924;-48
2023/06/27 10:34:21;;;;;;;0.60;0.50;;;;;;;21.65;100.00;99031.85;105004;1269;60121;-47
2023/06/27 10:36:50;;;;;;;1.50;1.20;;;;;;;21.71;100.00;99031.98;104526;1267;59984;-46
2023/06/27 10:39:26;;;;;;;0.50;0.50;;;;;;;21.77;100.00;99034.41;104629;1272;71388;-48
2023/06/27 10:42:03;;;;;;;0.70;0.70;;;;;;;21.81;100.00;99027.42;104571;1268;67522;-48
2023/06/27 10:44:31;;;;;;;1.20;0.50;;;;;;;21.86;100.00;99023.58;104385;1272;317910;-49
2023/06/27 10:47:33;;;;;;;0.60;0.50;;;;;;;21.91;100.00;99018.85;104588;1267;59378;-48
2023/06/27 10:50:12;;;;;;;2.70;0.60;;;;;;;22.00;100.00;99021.21;105278;1269;59346;-50
2023/06/27 10:52:42;;;;;;;1.10;0.60;;;;;;;22.02;100.00;99019.36;104760;1269;72234;-50
2023/06/27 10:55:16;;;;;;;0.60;0.60;;;;;;;22.02;100.00;99027.02;104732;1264;65536;-48
2023/06/27 10:58:02;;;;;;;0.80;0.50;;;;;;;22.01;100.00;99024.38;105201;1269;71506;-50
2023/06/27 11:00:34;;;;;;;0.60;0.60;;;;;;;22.05;100.00;99030.38;105615;1264;60246;-50
2023/06/27 11:03:03;;;;;;;0.50;0.50;;;;;;;22.03;100.00;99029.31;104867;1263;60015;-50
2023/06/27 11:05:51;;;;;;;0.50;0.50;;;;;;;22.00;100.00;99033.86;105113;1263;73570;-51
2023/06/27 11:08:20;;;;;;;1.20;0.60;;;;;;;22.01;100.00;99029.38;105051;1267;67267;-49
2023/06/27 11:11:00;;;;;;;0.50;0.50;;;;;;;22.01;100.00;99026.06;104399;1267;71473;-48
2023/06/27 11:13:28;;;;;;;1.00;0.60;;;;;;;22.05;100.00;99025.55;104609;1266;59644;-49
2023/06/27 11:15:55;;;;;;;0.50;0.50;;;;;;;22.07;100.00;99024.23;104727;1269;59599;-49
2023/06/27 11:18:25;;;;;;;0.90;0.50;;;;;;;22.07;100.00;99021.70;104866;1263;73075;-48
2023/06/27 11:20:53;;;;;;;0.70;0.50;;;;;;;22.05;100.00;99023.42;105760;1265;67969;-47
2023/06/27 11:23:22;;;;;;;0.50;0.50;;;;;;;22.04;100.00;99019.11;104930;1264;72817;-48
2023/06/27 11:25:49;;;;;;;0.50;0.50;;;;;;;22.09;100.00;99017.84;104994;1269;60644;-49